sensor_id;sensor_type;location;lat;lon;timestamp;P1;durP1;ratioP1;P2;durP2;ratioP2
23812;SDS011;12087;45.190;5.688;2024-01-15T02:29:30;43.70;;;27.40;;
23812;SDS011;12087;45.190;5.688;2024-01-15T02:34:53;42.83;;;26.30;;
23812;SDS011;12087;45.190;5.688;2024-01-15T02:40:16;42.08;;;25.45;;
23812;SDS011;12087;45.190;5.688;2024-01-15T02:45:39;39.53;;;24.10;;
23812;SDS011;12087;45.190;5.688;2024-01-15T02:51:02;47.95;;;27.13;;
23812;SDS011;12087;45.190;5.688;2024-01-15T02:56:24;43.97;;;26.48;;
23812;SDS011;12087;45.190;5.688;2024-01-15T03:01:48;42.10;;;24.80;;
23812;SDS011;12087;45.190;5.688;2024-01-15T03:07:10;37.40;;;22.75;;
23812;SDS011;12087;45.190;5.688;2024-01-15T03:12:32;37.40;;;21.13;;
23812;SDS011;12087;45.190;5.688;2024-01-15T03:17:56;35.95;;;20.20;;
23812;SDS011;12087;45.190;5.688;2024-01-15T03:23:18;33.00;;;20.08;;
23812;SDS011;12087;45.190;5.688;2024-01-15T03:28:40;28.45;;;18.38;;
23812;SDS011;12087;45.190;5.688;2024-01-15T03:34:04;30.25;;;18.95;;
23812;SDS011;12087;45.190;5.688;2024-01-15T03:39:26;34.15;;;20.52;;
23812;SDS011;12087;45.190;5.688;2024-01-15T03:44:48;36.30;;;21.30;;
23812;SDS011;12087;45.190;5.688;2024-01-15T03:50:13;34.05;;;20.85;;
23812;SDS011;12087;45.190;5.688;2024-01-15T03:55:35;34.95;;;20.67;;
23812;SDS011;12087;45.190;5.688;2024-01-15T04:00:57;32.60;;;18.83;;
23812;SDS011;12087;45.190;5.688;2024-01-15T04:06:21;31.25;;;21.40;;
23812;SDS011;12087;45.190;5.688;2024-01-15T04:11:43;35.25;;;21.75;;
23812;SDS011;12087;45.190;5.688;2024-01-15T04:17:05;38.65;;;22.75;;
23812;SDS011;12087;45.190;5.688;2024-01-15T04:22:29;33.20;;;19.85;;
23812;SDS011;12087;45.190;5.688;2024-01-15T04:27:51;33.50;;;20.75;;
23812;SDS011;12087;45.190;5.688;2024-01-15T05:06:40;35.92;;;21.67;;
23812;SDS011;12087;45.190;5.688;2024-01-15T05:12:03;35.88;;;20.98;;
23812;SDS011;12087;45.190;5.688;2024-01-15T05:17:26;32.40;;;21.13;;
23812;SDS011;12087;45.190;5.688;2024-01-15T05:22:49;40.42;;;22.00;;
23812;SDS011;12087;45.190;5.688;2024-01-15T05:28:11;38.63;;;23.23;;
23812;SDS011;12087;45.190;5.688;2024-01-15T05:33:33;41.42;;;25.80;;
23812;SDS011;12087;45.190;5.688;2024-01-15T06:04:32;39.50;;;24.00;;
23812;SDS011;12087;45.190;5.688;2024-01-15T06:09:54;40.00;;;23.98;;
23812;SDS011;12087;45.190;5.688;2024-01-15T06:15:17;39.33;;;24.42;;
23812;SDS011;12087;45.190;5.688;2024-01-15T06:20:41;41.50;;;25.55;;
23812;SDS011;12087;45.190;5.688;2024-01-15T06:26:03;43.15;;;26.15;;
23812;SDS011;12087;45.190;5.688;2024-01-15T06:31:25;44.33;;;27.08;;
23812;SDS011;12087;45.190;5.688;2024-01-15T06:36:49;43.05;;;26.02;;
23812;SDS011;12087;45.190;5.688;2024-01-15T06:42:11;44.33;;;25.77;;
23812;SDS011;12087;45.190;5.688;2024-01-15T06:47:33;41.10;;;27.52;;
23812;SDS011;12087;45.190;5.688;2024-01-15T06:52:57;47.40;;;30.48;;
23812;SDS011;12087;45.190;5.688;2024-01-15T06:58:19;50.78;;;32.45;;
23812;SDS011;12087;45.190;5.688;2024-01-15T07:03:41;49.17;;;30.13;;
23812;SDS011;12087;45.190;5.688;2024-01-15T07:09:05;80.28;;;48.78;;
23812;SDS011;12087;45.190;5.688;2024-01-15T07:14:29;76.18;;;46.55;;
23812;SDS011;12087;45.190;5.688;2024-01-15T07:19:51;147.63;;;96.55;;
23812;SDS011;12087;45.190;5.688;2024-01-15T07:25:15;61.67;;;39.97;;
23812;SDS011;12087;45.190;5.688;2024-01-15T07:30:37;63.97;;;38.55;;
23812;SDS011;12087;45.190;5.688;2024-01-15T07:35:59;47.22;;;30.80;;
23812;SDS011;12087;45.190;5.688;2024-01-15T07:41:24;51.05;;;31.52;;
23812;SDS011;12087;45.190;5.688;2024-01-15T07:46:46;54.30;;;35.10;;
23812;SDS011;12087;45.190;5.688;2024-01-15T07:52:09;92.72;;;62.78;;
23812;SDS011;12087;45.190;5.688;2024-01-15T07:57:48;112.10;;;74.80;;
23812;SDS011;12087;45.190;5.688;2024-01-15T08:03:12;84.57;;;53.80;;
23812;SDS011;12087;45.190;5.688;2024-01-15T08:08:35;78.78;;;50.92;;
23812;SDS011;12087;45.190;5.688;2024-01-15T08:13:59;73.18;;;48.40;;
23812;SDS011;12087;45.190;5.688;2024-01-15T08:19:22;74.75;;;45.75;;
23812;SDS011;12087;45.190;5.688;2024-01-15T08:24:44;103.32;;;59.75;;
23812;SDS011;12087;45.190;5.688;2024-01-15T08:30:09;54.78;;;38.67;;
23812;SDS011;12087;45.190;5.688;2024-01-15T08:35:32;52.97;;;33.97;;
23812;SDS011;12087;45.190;5.688;2024-01-15T08:40:55;45.92;;;28.35;;
23812;SDS011;12087;45.190;5.688;2024-01-15T08:46:21;47.75;;;30.42;;
23812;SDS011;12087;45.190;5.688;2024-01-15T08:51:44;48.22;;;31.63;;
23812;SDS011;12087;45.190;5.688;2024-01-15T08:57:08;44.22;;;27.38;;
23812;SDS011;12087;45.190;5.688;2024-01-15T09:02:32;51.92;;;34.83;;
23812;SDS011;12087;45.190;5.688;2024-01-15T09:07:54;40.53;;;26.17;;
23812;SDS011;12087;45.190;5.688;2024-01-15T09:13:18;39.28;;;25.67;;
23812;SDS011;12087;45.190;5.688;2024-01-15T09:18:45;64.95;;;41.17;;
23812;SDS011;12087;45.190;5.688;2024-01-15T09:24:08;54.05;;;33.38;;
23812;SDS011;12087;45.190;5.688;2024-01-15T09:29:30;44.53;;;29.42;;
23812;SDS011;12087;45.190;5.688;2024-01-15T09:34:54;45.20;;;28.42;;
23812;SDS011;12087;45.190;5.688;2024-01-15T09:40:16;46.13;;;31.20;;
23812;SDS011;12087;45.190;5.688;2024-01-15T09:45:41;48.22;;;31.38;;
23812;SDS011;12087;45.190;5.688;2024-01-15T09:51:06;42.92;;;28.13;;
23812;SDS011;12087;45.190;5.688;2024-01-15T09:56:31;42.25;;;26.85;;
23812;SDS011;12087;45.190;5.688;2024-01-15T10:01:57;77.88;;;47.10;;
23812;SDS011;12087;45.190;5.688;2024-01-15T10:07:26;55.35;;;36.50;;
23812;SDS011;12087;45.190;5.688;2024-01-15T10:12:50;70.22;;;42.28;;
23812;SDS011;12087;45.190;5.688;2024-01-15T10:18:13;62.70;;;47.88;;
23812;SDS011;12087;45.190;5.688;2024-01-15T10:23:37;52.25;;;36.33;;
23812;SDS011;12087;45.190;5.688;2024-01-15T10:29:00;52.40;;;32.97;;
23812;SDS011;12087;45.190;5.688;2024-01-15T10:34:23;95.72;;;67.70;;
23812;SDS011;12087;45.190;5.688;2024-01-15T10:39:48;52.67;;;35.45;;
23812;SDS011;12087;45.190;5.688;2024-01-15T10:45:11;42.92;;;29.13;;
23812;SDS011;12087;45.190;5.688;2024-01-15T10:50:34;52.38;;;37.25;;
23812;SDS011;12087;45.190;5.688;2024-01-15T10:55:57;44.70;;;28.95;;
23812;SDS011;12087;45.190;5.688;2024-01-15T11:01:21;39.85;;;24.98;;
23812;SDS011;12087;45.190;5.688;2024-01-15T11:06:44;37.75;;;25.17;;
23812;SDS011;12087;45.190;5.688;2024-01-15T11:12:09;43.40;;;24.08;;
23812;SDS011;12087;45.190;5.688;2024-01-15T11:29:08;39.03;;;26.80;;
23812;SDS011;12087;45.190;5.688;2024-01-15T11:40:13;54.95;;;36.45;;
23812;SDS011;12087;45.190;5.688;2024-01-15T11:45:41;43.63;;;29.88;;
23812;SDS011;12087;45.190;5.688;2024-01-15T11:51:03;52.15;;;34.83;;
23812;SDS011;12087;45.190;5.688;2024-01-15T11:56:26;36.58;;;23.60;;
23812;SDS011;12087;45.190;5.688;2024-01-15T12:01:50;39.53;;;24.95;;
23812;SDS011;12087;45.190;5.688;2024-01-15T12:07:12;32.92;;;19.63;;
23812;SDS011;12087;45.190;5.688;2024-01-15T12:12:37;40.08;;;28.77;;
23812;SDS011;12087;45.190;5.688;2024-01-15T12:18:12;36.72;;;24.73;;
23812;SDS011;12087;45.190;5.688;2024-01-15T12:23:35;49.45;;;32.60;;
23812;SDS011;12087;45.190;5.688;2024-01-15T12:28:57;36.17;;;24.80;;
23812;SDS011;12087;45.190;5.688;2024-01-15T12:34:23;37.47;;;24.27;;
23812;SDS011;12087;45.190;5.688;2024-01-15T12:39:51;39.80;;;21.73;;
23812;SDS011;12087;45.190;5.688;2024-01-15T12:45:15;38.35;;;22.15;;
23812;SDS011;12087;45.190;5.688;2024-01-15T12:50:38;33.95;;;21.25;;
23812;SDS011;12087;45.190;5.688;2024-01-15T12:56:01;43.83;;;28.35;;
23812;SDS011;12087;45.190;5.688;2024-01-15T13:01:23;37.47;;;25.23;;
23812;SDS011;12087;45.190;5.688;2024-01-15T13:06:47;60.10;;;39.17;;
23812;SDS011;12087;45.190;5.688;2024-01-15T13:12:10;35.30;;;23.35;;
23812;SDS011;12087;45.190;5.688;2024-01-15T13:17:32;32.45;;;21.42;;
23812;SDS011;12087;45.190;5.688;2024-01-15T13:22:56;43.08;;;28.63;;
23812;SDS011;12087;45.190;5.688;2024-01-15T13:28:19;39.13;;;27.52;;
23812;SDS011;12087;45.190;5.688;2024-01-15T13:33:41;36.45;;;22.50;;
23812;SDS011;12087;45.190;5.688;2024-01-15T13:39:05;34.15;;;21.63;;
23812;SDS011;12087;45.190;5.688;2024-01-15T13:44:28;30.50;;;19.98;;
23812;SDS011;12087;45.190;5.688;2024-01-15T13:49:51;28.60;;;18.73;;
23812;SDS011;12087;45.190;5.688;2024-01-15T13:55:15;25.50;;;17.55;;
23812;SDS011;12087;45.190;5.688;2024-01-15T14:00:37;32.72;;;18.33;;
23812;SDS011;12087;45.190;5.688;2024-01-15T14:06:00;32.20;;;18.75;;
23812;SDS011;12087;45.190;5.688;2024-01-15T14:11:25;23.40;;;16.52;;
23812;SDS011;12087;45.190;5.688;2024-01-15T14:16:47;25.92;;;15.82;;
23812;SDS011;12087;45.190;5.688;2024-01-15T14:22:10;25.65;;;14.57;;
23812;SDS011;12087;45.190;5.688;2024-01-15T14:27:34;22.90;;;14.68;;
23812;SDS011;12087;45.190;5.688;2024-01-15T14:32:56;19.00;;;14.25;;
23812;SDS011;12087;45.190;5.688;2024-01-15T14:38:18;18.77;;;13.20;;
23812;SDS011;12087;45.190;5.688;2024-01-15T14:43:42;16.48;;;11.48;;
23812;SDS011;12087;45.190;5.688;2024-01-15T14:49:05;17.30;;;12.20;;
23812;SDS011;12087;45.190;5.688;2024-01-15T14:54:27;20.55;;;14.50;;
23812;SDS011;12087;45.190;5.688;2024-01-15T14:59:51;20.88;;;15.32;;
23812;SDS011;12087;45.190;5.688;2024-01-15T15:05:13;21.73;;;15.65;;
23812;SDS011;12087;45.190;5.688;2024-01-15T15:10:37;21.35;;;14.20;;
23812;SDS011;12087;45.190;5.688;2024-01-15T15:16:02;22.17;;;16.35;;
23812;SDS011;12087;45.190;5.688;2024-01-15T15:21:26;24.85;;;16.50;;
23812;SDS011;12087;45.190;5.688;2024-01-15T15:26:49;22.13;;;15.15;;
23812;SDS011;12087;45.190;5.688;2024-01-15T15:32:13;21.30;;;15.27;;
23812;SDS011;12087;45.190;5.688;2024-01-15T15:37:35;24.65;;;18.70;;
23812;SDS011;12087;45.190;5.688;2024-01-15T15:42:57;25.55;;;18.77;;
23812;SDS011;12087;45.190;5.688;2024-01-15T15:48:22;24.90;;;18.98;;
23812;SDS011;12087;45.190;5.688;2024-01-15T15:53:45;29.77;;;19.60;;
23812;SDS011;12087;45.190;5.688;2024-01-15T15:59:07;31.83;;;22.33;;
23812;SDS011;12087;45.190;5.688;2024-01-15T16:04:31;29.88;;;20.05;;
23812;SDS011;12087;45.190;5.688;2024-01-15T16:09:53;25.58;;;18.92;;
23812;SDS011;12087;45.190;5.688;2024-01-15T16:15:19;24.13;;;17.05;;
23812;SDS011;12087;45.190;5.688;2024-01-15T16:20:44;26.40;;;18.63;;
23812;SDS011;12087;45.190;5.688;2024-01-15T16:26:06;29.80;;;20.90;;
23812;SDS011;12087;45.190;5.688;2024-01-15T16:31:28;28.67;;;19.75;;
23812;SDS011;12087;45.190;5.688;2024-01-15T16:36:53;27.92;;;19.05;;
23812;SDS011;12087;45.190;5.688;2024-01-15T16:42:15;61.65;;;44.85;;
23812;SDS011;12087;45.190;5.688;2024-01-15T16:47:37;39.95;;;33.08;;
23812;SDS011;12087;45.190;5.688;2024-01-15T16:53:01;27.42;;;20.23;;
23812;SDS011;12087;45.190;5.688;2024-01-15T16:58:25;24.08;;;18.73;;
23812;SDS011;12087;45.190;5.688;2024-01-15T17:03:51;27.92;;;18.20;;
23812;SDS011;12087;45.190;5.688;2024-01-15T17:09:14;30.30;;;19.42;;
23812;SDS011;12087;45.190;5.688;2024-01-15T17:14:37;27.33;;;20.08;;
23812;SDS011;12087;45.190;5.688;2024-01-15T17:19:59;33.40;;;23.02;;
23812;SDS011;12087;45.190;5.688;2024-01-15T17:25:23;30.60;;;21.40;;
23812;SDS011;12087;45.190;5.688;2024-01-15T17:30:45;36.28;;;23.55;;
23812;SDS011;12087;45.190;5.688;2024-01-15T17:36:07;33.50;;;21.67;;
23812;SDS011;12087;45.190;5.688;2024-01-15T17:41:31;30.23;;;19.40;;
23812;SDS011;12087;45.190;5.688;2024-01-15T17:46:54;34.80;;;21.75;;
23812;SDS011;12087;45.190;5.688;2024-01-15T17:52:16;33.80;;;22.38;;
23812;SDS011;12087;45.190;5.688;2024-01-15T17:57:40;31.80;;;22.33;;
23812;SDS011;12087;45.190;5.688;2024-01-15T18:03:02;34.20;;;22.88;;
23812;SDS011;12087;45.190;5.688;2024-01-15T18:08:24;36.53;;;23.77;;
23812;SDS011;12087;45.190;5.688;2024-01-15T18:13:48;38.17;;;24.52;;
23812;SDS011;12087;45.190;5.688;2024-01-15T18:19:12;36.90;;;24.20;;
23812;SDS011;12087;45.190;5.688;2024-01-15T18:24:34;38.25;;;24.88;;
23812;SDS011;12087;45.190;5.688;2024-01-15T18:29:58;37.50;;;24.75;;
23812;SDS011;12087;45.190;5.688;2024-01-15T18:35:20;35.13;;;24.73;;
23812;SDS011;12087;45.190;5.688;2024-01-15T18:40:43;32.55;;;24.52;;
23812;SDS011;12087;45.190;5.688;2024-01-15T19:10:58;28.57;;;19.80;;
23812;SDS011;12087;45.190;5.688;2024-01-15T19:16:21;26.60;;;18.20;;
23812;SDS011;12087;45.190;5.688;2024-01-15T19:21:43;26.77;;;19.17;;
23812;SDS011;12087;45.190;5.688;2024-01-15T19:27:07;31.02;;;19.30;;
23812;SDS011;12087;45.190;5.688;2024-01-15T19:57:33;22.25;;;15.05;;
23812;SDS011;12087;45.190;5.688;2024-01-15T20:09:19;22.45;;;15.45;;
23812;SDS011;12087;45.190;5.688;2024-01-15T20:14:44;19.83;;;14.23;;
23812;SDS011;12087;45.190;5.688;2024-01-15T20:20:07;19.10;;;14.68;;
23812;SDS011;12087;45.190;5.688;2024-01-15T20:25:30;21.55;;;14.68;;
23812;SDS011;12087;45.190;5.688;2024-01-15T20:30:54;22.65;;;14.70;;
23812;SDS011;12087;45.190;5.688;2024-01-15T20:36:16;24.77;;;14.95;;
23812;SDS011;12087;45.190;5.688;2024-01-15T22:47:50;7.57;;;6.13;;
23812;SDS011;12087;45.190;5.688;2024-01-15T22:53:13;7.68;;;6.50;;
23812;SDS011;12087;45.190;5.688;2024-01-15T22:58:35;8.18;;;6.20;;
23812;SDS011;12087;45.190;5.688;2024-01-15T23:26:57;8.20;;;6.82;;
23812;SDS011;12087;45.190;5.688;2024-01-15T23:32:19;9.07;;;7.18;;
23812;SDS011;12087;45.190;5.688;2024-01-15T23:37:41;8.23;;;7.15;;
23812;SDS011;12087;45.190;5.688;2024-01-15T23:43:05;8.82;;;6.65;;
23812;SDS011;12087;45.190;5.688;2024-01-15T23:48:27;10.02;;;7.45;;
23812;SDS011;12087;45.190;5.688;2024-01-15T23:53:49;10.95;;;7.47;;
23812;SDS011;12087;45.190;5.688;2024-01-15T23:59:13;11.15;;;7.97;;
